Time;durP1;ratioP1;P1;durP2;ratioP2;P2;SDS_P1;SDS_P2;PMS_P1;PMS_P2;Temp;Humidity;BMP_temperature;BMP_pressure;BME280_temperature;BME280_humidity;BME280_pressure;Samples;Min_cycle;Max_cycle;Signal;HPM_P1;HPM_P2
2022/06/09 00:01:50;;;;;;;11.38;1.60;;;12.20;99.90;;;;;;5018697;28;20022;-58
2022/06/09 00:04:22;;;;;;;11.43;2.08;;;12.20;99.90;;;;;;5014502;28;20398;-58
2022/06/09 00:07:08;;;;;;;15.07;2.10;;;12.10;99.90;;;;;;5019719;28;20532;-58
2022/06/09 00:09:40;;;;;;;14.23;2.00;;;12.10;99.90;;;;;;5016402;28;20030;-58
2022/06/09 00:12:06;;;;;;;13.18;1.75;;;12.10;99.90;;;;;;4999986;28;20026;-58
2022/06/09 00:14:33;;;;;;;13.98;1.80;;;12.10;99.90;;;;;;5023454;28;20030;-58
2022/06/09 00:16:59;;;;;;;12.88;1.70;;;12.00;99.90;;;;;;5020435;28;20537;-58
2022/06/09 00:19:25;;;;;;;12.68;1.67;;;12.00;99.90;;;;;;5023123;28;20125;-58
2022/06/09 00:21:51;;;;;;;6.35;1.50;;;12.00;99.90;;;;;;5021820;28;20466;-58
2022/06/09 00:24:17;;;;;;;15.88;1.75;;;12.00;99.90;;;;;;5022831;28;20064;-58
2022/06/09 00:26:43;;;;;;;12.95;2.90;;;12.00;99.90;;;;;;5020473;28;20036;-58
2022/06/09 00:29:09;;;;;;;13.27;2.67;;;12.10;99.90;;;;;;5014203;28;20029;-57
2022/06/09 00:31:35;;;;;;;17.35;2.08;;;12.00;99.90;;;;;;5013201;28;20069;-57
2022/06/09 00:34:00;;;;;;;14.38;1.88;;;12.00;99.90;;;;;;5017003;28;20033;-57
2022/06/09 00:36:26;;;;;;;19.95;1.55;;;12.00;99.90;;;;;;5013828;28;20038;-57
2022/06/09 00:38:52;;;;;;;11.93;2.05;;;12.00;99.90;;;;;;5011508;28;20034;-57
2022/06/09 00:41:18;;;;;;;9.68;2.03;;;12.00;99.90;;;;;;5017413;28;20022;-57
2022/06/09 00:43:44;;;;;;;16.63;2.90;;;12.00;99.90;;;;;;5015682;28;20050;-57
2022/06/09 00:46:10;;;;;;;14.93;2.75;;;12.00;99.90;;;;;;5013601;28;20037;-57
2022/06/09 00:48:51;;;;;;;11.13;2.28;;;11.90;99.90;;;;;;5013232;28;20084;-58
2022/06/09 00:51:37;;;;;;;16.20;1.98;;;11.90;99.90;;;;;;5014048;28;20092;-57
2022/06/09 00:54:20;;;;;;;18.75;2.42;;;11.80;99.90;;;;;;5022888;28;20025;-57
2022/06/09 00:56:51;;;;;;;;;;;11.80;99.90;;;;;;5016766;28;20032;-58
2022/06/09 00:59:20;;;;;;;18.33;2.45;;;11.80;99.90;;;;;;5013728;28;19974;-57
2022/06/09 01:01:46;;;;;;;12.48;2.13;;;11.70;99.90;;;;;;5028785;28;20026;-57
2022/06/09 01:04:14;;;;;;;14.80;2.00;;;11.70;99.90;;;;;;5025140;28;20029;-58
2022/06/09 01:07:16;;;;;;;17.20;1.50;;;11.70;99.90;;;;;;5010270;28;20061;-58
2022/06/09 01:09:42;;;;;;;10.25;3.40;;;11.60;99.90;;;;;;4988245;28;20500;-57
2022/06/09 01:12:42;;;;;;;19.80;2.03;;;11.50;99.90;;;;;;5012216;28;20501;-57
2022/06/09 01:15:14;;;;;;;10.20;1.92;;;11.40;99.90;;;;;;4985883;28;20467;-57
2022/06/09 01:18:04;;;;;;;9.68;1.90;;;11.30;99.90;;;;;;5014731;28;20109;-57
2022/06/09 01:20:37;;;;;;;13.05;2.30;;;11.30;99.90;;;;;;5016602;28;20402;-56
2022/06/09 01:23:30;;;;;;;16.70;2.38;;;11.30;99.90;;;;;;5024447;28;20503;-57
2022/06/09 01:26:32;;;;;;;14.95;1.92;;;11.20;99.90;;;;;;5017760;28;20028;-58
2022/06/09 01:29:17;;;;;;;11.90;1.70;;;11.10;99.90;;;;;;5007761;28;20119;-57
2022/06/09 01:31:47;;;;;;;17.10;2.25;;;11.10;99.90;;;;;;5011328;28;20079;-57
2022/06/09 01:34:28;;;;;;;18.25;3.53;;;11.20;99.90;;;;;;5011993;28;20037;-57
2022/06/09 01:37:06;;;;;;;11.82;2.45;;;11.20;99.90;;;;;;5022284;28;20033;-57
2022/06/09 01:39:58;;;;;;;13.02;1.98;;;11.30;99.90;;;;;;5008639;28;20034;-58
2022/06/09 01:42:25;;;;;;;14.35;2.17;;;11.20;99.90;;;;;;5015682;28;20089;-57
2022/06/09 01:45:13;;;;;;;9.98;2.15;;;11.10;99.90;;;;;;5019055;28;20120;-57
2022/06/09 01:47:46;;;;;;;16.23;3.42;;;11.10;99.90;;;;;;5021463;28;20088;-58
2022/06/09 01:50:38;;;;;;;11.52;1.30;;;11.00;99.90;;;;;;5009518;28;20120;-58
2022/06/09 01:53:10;;;;;;;16.00;3.60;;;10.90;99.90;;;;;;5000204;28;20444;-58
2022/06/09 01:55:41;;;;;;;15.30;2.30;;;11.00;99.90;;;;;;5010233;28;20057;-58
2022/06/09 01:58:09;;;;;;;11.45;3.30;;;10.90;99.90;;;;;;5001435;28;20030;-57
2022/06/09 02:00:36;;;;;;;11.93;1.73;;;10.90;99.90;;;;;;5010297;28;20034;-57
2022/06/09 02:03:05;;;;;;;14.88;2.35;;;10.80;99.90;;;;;;5011929;28;20533;-58
2022/06/09 02:05:37;;;;;;;9.57;1.63;;;10.70;99.90;;;;;;5011739;28;20030;-57
2022/06/09 02:08:06;;;;;;;8.18;1.60;;;10.70;99.90;;;;;;5010908;28;20073;-58
2022/06/09 02:10:40;;;;;;;8.73;1.20;;;10.60;99.90;;;;;;5012062;28;20116;-58
2022/06/09 02:13:28;;;;;;;9.55;2.45;;;10.60;99.90;;;;;;5015909;28;20057;-58
2022/06/09 02:15:58;;;;;;;9.93;1.48;;;10.60;99.90;;;;;;5012691;28;20501;-57
2022/06/09 02:18:26;;;;;;;13.70;2.28;;;10.70;99.90;;;;;;5010887;28;20037;-57
2022/06/09 02:21:18;;;;;;;16.42;2.97;;;10.70;99.90;;;;;;5026557;28;20119;-57
2022/06/09 02:23:47;;;;;;;12.30;2.30;;;10.80;99.90;;;;;;5013179;28;20029;-57
2022/06/09 02:26:14;;;;;;;9.93;1.88;;;10.80;99.90;;;;;;5019836;28;20038;-57
2022/06/09 02:28:39;;;;;;;8.35;1.48;;;10.90;99.90;;;;;;5010579;28;20022;-57
2022/06/09 02:31:05;;;;;;;10.48;1.13;;;11.00;99.90;;;;;;5015807;28;20041;-58
2022/06/09 02:33:31;;;;;;;23.05;2.05;;;11.00;99.90;;;;;;5014897;28;20159;-57
2022/06/09 02:35:57;;;;;;;11.93;2.08;;;11.00;99.90;;;;;;5017784;28;20512;-58
2022/06/09 02:38:23;;;;;;;11.85;2.00;;;11.00;99.90;;;;;;5025738;28;20034;-58
2022/06/09 02:40:49;;;;;;;14.05;1.65;;;11.10;99.90;;;;;;5018412;28;20048;-57
2022/06/09 02:43:15;;;;;;;15.88;2.50;;;11.00;99.90;;;;;;5009386;28;20502;-58
2022/06/09 02:45:41;;;;;;;9.88;2.13;;;11.10;99.90;;;;;;5014387;28;20057;-57
2022/06/09 02:48:07;;;;;;;17.52;2.10;;;11.10;99.90;;;;;;5020978;28;20022;-57
2022/06/09 02:50:33;;;;;;;15.52;1.75;;;11.10;99.90;;;;;;5015955;28;20470;-58
2022/06/09 02:52:59;;;;;;;13.55;3.25;;;11.10;99.90;;;;;;5019390;28;20049;-58
2022/06/09 02:55:26;;;;;;;5.72;1.55;;;11.30;99.90;;;;;;5020863;28;20040;-58
2022/06/09 02:57:52;;;;;;;15.27;2.47;;;11.30;99.90;;;;;;5012879;28;20109;-58
2022/06/09 03:00:18;;;;;;;14.13;2.85;;;11.40;99.90;;;;;;5022054;28;20076;-58
2022/06/09 03:02:52;;;;;;;8.77;1.42;;;11.40;99.90;;;;;;5020411;28;20486;-58
2022/06/09 03:05:18;;;;;;;10.52;1.60;;;11.40;99.90;;;;;;5014121;28;20039;-57
2022/06/09 03:07:43;;;;;;;16.83;2.47;;;11.40;99.90;;;;;;5015244;28;20022;-57
2022/06/09 03:10:09;;;;;;;12.00;1.92;;;11.50;99.90;;;;;;5029710;28;20064;-57
2022/06/09 03:12:35;;;;;;;12.15;2.55;;;11.40;99.90;;;;;;5017007;28;20057;-57
2022/06/09 03:15:01;;;;;;;16.30;1.90;;;11.50;99.90;;;;;;5010680;28;20057;-58
2022/06/09 03:17:27;;;;;;;9.93;1.98;;;11.50;99.90;;;;;;5014485;28;20069;-57
2022/06/09 03:19:53;;;;;;;11.60;2.45;;;11.50;99.90;;;;;;5019288;28;20125;-57
2022/06/09 03:22:19;;;;;;;8.13;2.45;;;11.50;99.90;;;;;;5012605;28;20018;-58
2022/06/09 03:24:45;;;;;;;15.95;1.75;;;11.50;99.90;;;;;;5023235;28;20029;-58
2022/06/09 03:27:11;;;;;;;15.82;2.13;;;11.50;99.90;;;;;;5018788;28;20018;-58
2022/06/09 03:29:37;;;;;;;17.58;2.55;;;11.50;99.90;;;;;;5025147;28;20048;-58
2022/06/09 03:32:03;;;;;;;13.63;1.73;;;11.50;99.90;;;;;;5016533;28;20053;-58
2022/06/09 03:34:28;;;;;;;11.52;2.47;;;11.50;99.90;;;;;;5014261;28;20025;-57
2022/06/09 03:36:54;;;;;;;10.90;2.13;;;11.50;99.90;;;;;;5015269;28;20033;-57
2022/06/09 03:39:20;;;;;;;13.32;2.10;;;11.40;99.90;;;;;;5011886;28;20040;-57
2022/06/09 03:41:46;;;;;;;14.68;3.05;;;11.50;99.90;;;;;;5035758;22;20013;-58
2022/06/09 03:44:11;;;;;;;15.43;3.50;;;11.60;99.90;;;;;;4999578;28;20113;-58
2022/06/09 03:46:37;;;;;;;15.75;2.00;;;11.60;99.90;;;;;;4993804;28;20037;-58
2022/06/09 03:49:03;;;;;;;15.98;1.98;;;11.60;99.90;;;;;;4996319;28;20101;-57
2022/06/09 03:51:29;;;;;;;13.25;1.60;;;11.60;99.90;;;;;;4992996;28;20038;-58
2022/06/09 03:53:55;;;;;;;10.75;1.70;;;11.60;99.90;;;;;;4992323;28;20111;-58
2022/06/09 03:56:22;;;;;;;24.38;1.85;;;11.60;99.90;;;;;;5005233;28;20030;-58
2022/06/09 03:58:48;;;;;;;18.02;2.47;;;11.60;99.90;;;;;;4996865;28;20113;-58
2022/06/09 04:01:17;;;;;;;14.60;2.58;;;11.50;99.90;;;;;;4999097;28;20031;-58
2022/06/09 04:03:45;;;;;;;8.30;1.67;;;11.40;99.90;;;;;;4993778;28;20141;-58
2022/06/09 04:06:29;;;;;;;13.98;2.05;;;11.30;99.90;;;;;;4995340;28;20046;-58
2022/06/09 04:08:55;;;;;;;10.52;2.85;;;11.30;99.90;;;;;;4994145;28;20027;-58
2022/06/09 04:11:22;;;;;;;9.90;1.90;;;11.20;99.90;;;;;;4993060;28;20433;-58
2022/06/09 04:13:48;;;;;;;13.38;2.13;;;11.10;99.90;;;;;;4995208;28;20035;-58
2022/06/09 04:16:28;;;;;;;12.30;2.10;;;11.00;99.90;;;;;;4990601;28;20184;-58
2022/06/09 04:18:55;;;;;;;17.88;2.63;;;10.90;99.90;;;;;;4999707;28;20030;-58
2022/06/09 04:21:22;;;;;;;17.40;2.50;;;10.90;99.90;;;;;;4998021;28;20445;-57
2022/06/09 04:23:49;;;;;;;10.60;2.03;;;10.80;99.90;;;;;;4992217;28;20076;-57
2022/06/09 04:26:18;;;;;;;13.77;2.55;;;10.90;99.90;;;;;;4997623;28;20406;-57
2022/06/09 04:28:44;;;;;;;9.50;1.88;;;10.90;99.90;;;;;;4993664;28;20018;-57
2022/06/09 04:31:11;;;;;;;11.27;2.13;;;10.90;99.90;;;;;;4989912;28;20030;-57
2022/06/09 04:33:38;;;;;;;14.63;2.53;;;11.00;99.90;;;;;;5001119;28;20030;-57
2022/06/09 04:36:06;;;;;;;13.48;3.42;;;11.20;99.90;;;;;;5008412;28;20025;-57
2022/06/09 04:38:32;;;;;;;13.88;2.35;;;11.20;99.90;;;;;;5003390;28;20080;-57
2022/06/09 04:40:58;;;;;;;8.52;2.40;;;11.20;99.90;;;;;;5000979;28;20035;-58
2022/06/09 04:43:24;;;;;;;18.67;3.10;;;11.30;99.90;;;;;;5002750;28;20053;-57
2022/06/09 04:45:50;;;;;;;20.20;1.90;;;11.30;99.90;;;;;;5000789;28;20359;-58
2022/06/09 04:48:16;;;;;;;9.63;2.33;;;11.40;99.90;;;;;;4999724;28;20088;-58
2022/06/09 04:50:42;;;;;;;17.85;2.22;;;11.40;99.90;;;;;;5003534;28;20030;-57
2022/06/09 04:53:09;;;;;;;12.93;2.08;;;11.50;99.90;;;;;;5008246;28;20034;-58
2022/06/09 04:55:40;;;;;;;13.40;2.20;;;11.50;99.90;;;;;;5005745;28;20029;-58
2022/06/09 04:58:06;;;;;;;10.43;1.90;;;11.60;99.90;;;;;;4999886;28;20478;-58
2022/06/09 05:00:32;;;;;;;12.02;2.10;;;11.60;99.90;;;;;;5002378;28;20053;-57
2022/06/09 05:02:59;;;;;;;16.80;2.55;;;11.60;99.90;;;;;;5001188;28;20116;-57
2022/06/09 05:05:29;;;;;;;11.60;2.20;;;11.60;99.90;;;;;;5002796;28;20030;-57
2022/06/09 05:07:55;;;;;;;13.32;1.70;;;11.70;99.90;;;;;;5000999;28;20018;-57
2022/06/09 05:10:21;;;;;;;13.25;1.88;;;11.80;99.90;;;;;;5000245;28;20072;-57
2022/06/09 05:12:48;;;;;;;16.20;2.38;;;11.70;99.90;;;;;;4995783;28;20057;-57
2022/06/09 05:15:16;;;;;;;10.75;3.10;;;11.80;99.90;;;;;;4989615;28;20065;-57
2022/06/09 05:17:43;;;;;;;16.50;2.95;;;11.90;99.90;;;;;;4992610;28;20161;-57
2022/06/09 05:20:12;;;;;;;14.75;3.00;;;12.00;99.90;;;;;;4995112;28;20038;-57
2022/06/09 05:22:37;;;;;;;11.80;2.13;;;12.00;99.90;;;;;;4993563;28;20045;-57
2022/06/09 05:25:04;;;;;;;9.35;1.73;;;12.10;99.90;;;;;;4989932;28;20042;-57
2022/06/09 05:27:30;;;;;;;11.65;2.65;;;12.10;99.90;;;;;;5005604;28;20018;-57
2022/06/09 05:29:56;;;;;;;12.10;3.17;;;12.10;99.90;;;;;;5002747;28;20120;-57
2022/06/09 05:32:22;;;;;;;11.60;2.35;;;12.10;99.90;;;;;;4993336;28;20034;-57
2022/06/09 05:34:48;;;;;;;16.15;2.88;;;12.10;99.90;;;;;;5002838;28;20045;-57
2022/06/09 05:37:15;;;;;;;16.00;2.47;;;12.10;99.90;;;;;;4994900;28;20018;-59
2022/06/09 05:45:10;;;;;;;14.07;2.83;;;12.20;99.90;;;;;;4992514;28;20045;-58
2022/06/09 05:47:36;;;;;;;17.85;2.50;;;12.20;99.90;;;;;;4997065;28;20113;-58
2022/06/09 05:50:03;;;;;;;14.30;3.53;;;12.30;99.90;;;;;;5000498;28;20455;-57
2022/06/09 05:52:30;;;;;;;9.27;2.33;;;12.40;99.90;;;;;;4989441;28;20038;-57
2022/06/09 05:54:57;;;;;;;15.43;2.50;;;12.50;99.90;;;;;;5006724;28;20026;-57
2022/06/09 05:57:25;;;;;;;13.55;2.90;;;12.40;99.90;;;;;;4990360;28;20030;-58
2022/06/09 05:59:51;;;;;;;12.73;2.25;;;12.50;99.90;;;;;;4992837;28;20069;-58
2022/06/09 06:02:19;;;;;;;17.17;2.80;;;12.60;99.90;;;;;;4996929;28;20429;-57
2022/06/09 06:04:45;;;;;;;18.15;3.10;;;12.60;99.90;;;;;;4996721;28;20030;-58
2022/06/09 06:07:11;;;;;;;13.45;2.83;;;12.70;99.90;;;;;;5004630;28;20030;-58
2022/06/09 06:09:37;;;;;;;15.77;3.88;;;12.60;99.90;;;;;;4995192;28;20030;-58
2022/06/09 06:12:04;;;;;;;16.83;2.63;;;12.60;99.90;;;;;;5004129;28;20034;-57
2022/06/09 06:14:31;;;;;;;11.20;2.30;;;12.70;99.90;;;;;;5001028;28;20427;-58
2022/06/09 06:16:57;;;;;;;14.98;3.00;;;12.80;99.90;;;;;;5001083;28;20029;-58
2022/06/09 06:19:24;;;;;;;11.57;2.28;;;12.90;99.90;;;;;;4990474;28;20030;-58
2022/06/09 06:21:51;;;;;;;13.52;2.50;;;13.00;99.90;;;;;;4997555;28;20389;-58
2022/06/09 06:24:19;;;;;;;15.38;2.30;;;13.10;99.90;;;;;;4992865;28;20049;-58
2022/06/09 06:26:45;;;;;;;15.68;2.67;;;13.20;99.90;;;;;;5004929;28;20034;-57
2022/06/09 06:29:15;;;;;;;16.33;2.22;;;13.30;99.90;;;;;;4992390;28;20054;-57
2022/06/09 06:31:41;;;;;;;21.02;3.22;;;13.40;99.90;;;;;;5006603;28;20033;-57
2022/06/09 06:34:07;;;;;;;18.38;3.72;;;13.40;99.90;;;;;;5001326;28;20141;-57
2022/06/09 06:36:33;;;;;;;15.95;2.03;;;13.40;99.90;;;;;;5005920;28;20104;-57
2022/06/09 06:38:59;;;;;;;14.85;1.50;;;13.50;99.90;;;;;;4994309;28;20037;-57
2022/06/09 06:41:25;;;;;;;13.70;2.72;;;13.60;99.90;;;;;;4993467;28;20450;-57
2022/06/09 06:43:52;;;;;;;16.65;2.65;;;13.70;99.90;;;;;;4995606;28;20394;-58
2022/06/09 06:46:18;;;;;;;12.35;1.85;;;13.80;99.90;;;;;;4994121;28;20482;-58
2022/06/09 06:48:46;;;;;;;13.75;2.30;;;13.80;99.90;;;;;;5002160;28;20100;-58
2022/06/09 06:51:12;;;;;;;17.02;2.60;;;13.90;99.90;;;;;;4993654;28;20061;-57
2022/06/09 06:53:39;;;;;;;13.75;2.63;;;13.90;99.90;;;;;;4995278;28;20034;-58
2022/06/09 06:56:05;;;;;;;9.10;2.17;;;13.90;99.90;;;;;;5000986;28;20037;-56
2022/06/09 06:58:31;;;;;;;19.40;4.00;;;14.00;99.90;;;;;;5004681;28;20026;-57
2022/06/09 07:00:58;;;;;;;9.95;1.33;;;14.00;99.90;;;;;;4998603;28;20121;-57
2022/06/09 07:03:24;;;;;;;27.42;4.07;;;14.00;99.90;;;;;;4990413;28;20038;-58
2022/06/09 07:05:50;;;;;;;17.75;3.10;;;14.10;99.90;;;;;;5005570;28;20026;-58
2022/06/09 07:08:16;;;;;;;13.68;2.50;;;14.10;99.90;;;;;;4994123;28;20030;-58
2022/06/09 07:10:43;;;;;;;16.83;2.40;;;14.20;99.90;;;;;;5005104;28;20061;-57
2022/06/09 07:13:09;;;;;;;12.10;1.83;;;14.30;99.90;;;;;;4995206;28;20034;-58
2022/06/09 07:15:34;;;;;;;10.98;2.53;;;14.40;99.90;;;;;;5005006;28;20176;-58
2022/06/09 07:18:00;;;;;;;13.63;2.00;;;14.40;99.90;;;;;;5003556;28;20061;-57
2022/06/09 07:20:26;;;;;;;20.13;3.65;;;14.50;99.90;;;;;;4995393;28;20042;-58
2022/06/09 07:22:53;;;;;;;15.38;2.78;;;14.60;99.90;;;;;;5006374;28;20037;-58
2022/06/09 07:25:20;;;;;;;14.52;2.50;;;14.60;99.90;;;;;;4998143;28;20061;-58
2022/06/09 07:27:47;;;;;;;13.73;3.72;;;14.60;99.90;;;;;;5005791;28;20026;-58
2022/06/09 07:30:15;;;;;;;12.85;1.92;;;14.70;99.90;;;;;;4993655;28;20441;-57
2022/06/09 07:32:41;;;;;;;12.05;2.25;;;14.80;99.90;;;;;;5007437;28;20068;-58
2022/06/09 07:35:08;;;;;;;10.02;2.20;;;14.90;99.90;;;;;;4993739;28;20096;-57
2022/06/09 07:37:34;;;;;;;8.70;1.80;;;14.90;99.90;;;;;;5009384;28;20030;-59
2022/06/09 07:40:00;;;;;;;10.20;2.28;;;14.90;99.90;;;;;;5005158;28;20046;-58
2022/06/09 07:42:26;;;;;;;8.48;2.22;;;15.00;99.90;;;;;;5005215;28;20049;-58
2022/06/09 07:44:53;;;;;;;11.60;2.10;;;15.10;99.90;;;;;;4996971;28;20364;-60
2022/06/09 07:47:19;;;;;;;12.52;1.80;;;15.20;99.90;;;;;;4995177;28;20027;-59
2022/06/09 07:49:45;;;;;;;12.07;2.00;;;15.30;99.90;;;;;;4994561;28;20026;-58
2022/06/09 07:52:11;;;;;;;10.45;1.73;;;15.40;99.90;;;;;;5001467;28;20038;-58
2022/06/09 07:54:37;;;;;;;10.48;2.30;;;15.40;99.90;;;;;;4997618;28;20030;-59
2022/06/09 07:57:03;;;;;;;11.05;1.52;;;15.40;99.90;;;;;;5003407;28;20536;-58
2022/06/09 07:59:29;;;;;;;9.43;2.08;;;15.50;99.90;;;;;;4998245;28;20430;-58
2022/06/09 08:01:55;;;;;;;12.55;3.88;;;15.50;99.90;;;;;;5005576;28;20038;-58
2022/06/09 08:04:21;;;;;;;12.88;2.95;;;15.50;99.90;;;;;;4998770;28;20022;-57
2022/06/09 08:06:47;;;;;;;12.13;2.35;;;15.50;99.90;;;;;;4996650;28;20490;-57
2022/06/09 08:09:12;;;;;;;8.30;1.88;;;15.60;99.90;;;;;;5000670;28;20038;-58
2022/06/09 08:11:39;;;;;;;10.73;2.85;;;15.50;99.90;;;;;;4996836;28;20037;-58
2022/06/09 08:14:06;;;;;;;13.20;2.20;;;15.50;99.90;;;;;;5003575;28;20034;-57
2022/06/09 08:16:33;;;;;;;15.30;2.30;;;15.70;99.90;;;;;;4996749;28;20026;-58
2022/06/09 08:18:59;;;;;;;10.63;2.13;;;15.80;99.90;;;;;;4998108;28;20526;-58
2022/06/09 08:21:26;;;;;;;10.23;2.10;;;15.80;99.90;;;;;;5007701;28;20037;-58
2022/06/09 08:23:52;;;;;;;7.03;1.48;;;15.80;99.90;;;;;;5003375;28;20052;-58
2022/06/09 08:26:19;;;;;;;12.07;2.17;;;15.90;99.90;;;;;;5000176;28;20466;-59
2022/06/09 08:28:44;;;;;;;12.73;1.75;;;16.10;99.90;;;;;;4992890;28;20118;-58
2022/06/09 08:31:11;;;;;;;13.35;2.33;;;16.20;99.90;;;;;;4999352;28;20061;-58
2022/06/09 08:33:36;;;;;;;10.77;1.58;;;16.40;99.90;;;;;;5003913;28;20384;-57
2022/06/09 08:36:03;;;;;;;13.55;1.65;;;16.70;99.90;;;;;;5008305;28;20066;-59
2022/06/09 08:38:29;;;;;;;8.73;1.45;;;17.00;99.90;;;;;;5006439;28;20040;-58
2022/06/09 08:41:03;;;;;;;8.98;1.20;;;17.30;99.90;;;;;;5002320;28;20125;-58
2022/06/09 08:43:45;;;;;;;7.30;1.77;;;17.40;99.90;;;;;;5007816;28;20046;-57
2022/06/09 08:46:25;;;;;;;13.10;2.70;;;17.50;99.90;;;;;;4980611;28;20038;-57
2022/06/09 08:48:55;;;;;;;8.80;1.20;;;17.50;99.90;;;;;;5000780;28;20037;-59
2022/06/09 08:51:46;;;;;;;7.22;2.03;;;17.70;99.90;;;;;;4999863;28;20076;-57
2022/06/09 08:54:22;;;;;;;10.68;1.50;;;17.90;99.90;;;;;;4993132;28;20030;-57
2022/06/09 08:56:49;;;;;;;11.85;2.28;;;17.80;99.90;;;;;;4984877;28;20092;-57
2022/06/09 08:59:22;;;;;;;8.75;1.95;;;17.70;99.90;;;;;;4996099;28;20089;-57
2022/06/09 09:02:03;;;;;;;15.93;2.35;;;17.50;99.90;;;;;;4990590;28;20065;-58
2022/06/09 09:04:42;;;;;;;14.60;3.92;;;17.40;99.90;;;;;;4996907;28;20095;-57
2022/06/09 09:07:36;;;;;;;13.23;2.25;;;17.40;99.90;;;;;;4997654;28;20057;-57
2022/06/09 09:10:19;;;;;;;10.65;1.48;;;17.60;99.90;;;;;;4991823;28;20477;-58
2022/06/09 09:12:50;;;;;;;12.07;2.65;;;17.80;99.90;;;;;;4995354;28;20165;-57
2022/06/09 09:15:20;;;;;;;11.38;2.45;;;18.20;99.90;;;;;;4988410;28;20133;-59
2022/06/09 09:18:22;;;;;;;17.27;2.63;;;18.70;99.90;;;;;;4992576;28;20038;-58
2022/06/09 09:21:17;;;;;;;8.82;1.90;;;18.70;99.90;;;;;;4986960;28;20042;-57
2022/06/09 09:23:58;;;;;;;17.85;2.40;;;18.90;99.90;;;;;;4998782;28;20042;-57
2022/06/09 09:26:48;;;;;;;11.98;2.40;;;19.10;99.90;;;;;;4995280;28;20397;-57
2022/06/09 09:29:40;;;;;;;13.20;3.08;;;19.20;99.90;;;;;;4979482;28;20133;-57
2022/06/09 09:32:21;;;;;;;11.50;2.33;;;19.40;99.90;;;;;;4991668;28;20029;-57
2022/06/09 09:34:48;;;;;;;12.85;2.40;;;19.50;99.90;;;;;;4992180;28;20038;-57
2022/06/09 09:37:32;;;;;;;9.23;1.60;;;19.40;99.90;;;;;;4994230;28;20473;-58
2022/06/09 09:40:10;;;;;;;10.70;2.10;;;19.60;99.90;;;;;;5003812;28;20030;-59
2022/06/09 09:42:39;;;;;;;15.70;2.63;;;19.50;99.90;;;;;;5001528;28;20045;-58
2022/06/09 09:45:15;;;;;;;11.80;1.73;;;19.70;99.90;;;;;;5003859;28;20065;-58
2022/06/09 09:47:49;;;;;;;15.32;3.08;;;19.60;99.90;;;;;;4991282;28;20030;-58
2022/06/09 09:50:24;;;;;;;16.15;2.80;;;19.50;99.90;;;;;;4993003;28;20038;-58
2022/06/09 09:53:18;;;;;;;14.23;2.75;;;19.70;99.90;;;;;;4997698;28;20062;-58
2022/06/09 09:55:54;;;;;;;12.48;1.73;;;19.70;99.90;;;;;;4998232;28;20128;-58
2022/06/09 09:58:41;;;;;;;10.55;2.20;;;19.50;99.90;;;;;;4996746;28;20046;-58
2022/06/09 10:01:32;;;;;;;20.17;3.25;;;19.80;99.90;;;;;;4991967;28;20073;-58
2022/06/09 10:09:46;;;;;;;9.98;1.60;;;19.80;99.90;;;;;;4997903;28;20093;-58
2022/06/09 10:12:33;;;;;;;12.63;1.85;;;19.90;99.90;;;;;;4990649;28;20073;-57
2022/06/09 10:15:11;;;;;;;11.57;2.38;;;19.60;99.90;;;;;;4998455;28;20042;-57
2022/06/09 10:17:58;;;;;;;7.70;1.60;;;19.70;99.90;;;;;;4991960;28;20474;-57
2022/06/09 10:20:29;;;;;;;8.88;2.03;;;19.70;99.90;;;;;;4979724;28;20429;-57
2022/06/09 10:23:03;;;;;;;16.63;2.28;;;19.50;99.90;;;;;;5003944;28;20042;-58
2022/06/09 10:25:39;;;;;;;10.75;2.53;;;19.60;99.90;;;;;;4988325;28;20049;-58
2022/06/09 10:28:25;;;;;;;9.82;2.25;;;19.70;99.90;;;;;;4990479;28;20030;-58
2022/06/09 10:31:11;;;;;;;10.95;1.88;;;19.80;99.90;;;;;;5006581;28;20038;-58
2022/06/09 10:33:40;;;;;;;13.27;2.17;;;19.70;99.90;;;;;;5002538;28;20031;-58
2022/06/09 10:36:21;;;;;;;13.20;2.00;;;19.70;99.90;;;;;;5006543;28;20042;-57
2022/06/09 10:38:54;;;;;;;8.48;2.15;;;19.60;99.90;;;;;;5002596;28;20062;-57
2022/06/09 10:41:29;;;;;;;11.10;1.98;;;19.50;99.90;;;;;;4979126;28;20137;-57
2022/06/09 10:44:04;;;;;;;10.32;1.95;;;19.30;99.90;;;;;;5001099;28;20041;-58
2022/06/09 10:46:45;;;;;;;16.88;3.03;;;19.40;99.90;;;;;;4985179;28;20062;-58
2022/06/09 10:55:29;;;;;;;17.73;2.47;;;19.30;99.90;;;;;;4989334;28;20524;-58
2022/06/09 10:58:07;;;;;;;10.90;1.85;;;18.80;99.90;;;;;;5000679;28;20330;-58
2022/06/09 11:00:41;;;;;;;8.57;1.85;;;18.70;99.90;;;;;;5001085;28;20084;-57
2022/06/09 11:03:30;;;;;;;12.50;2.13;;;18.80;99.90;;;;;;4998100;28;20026;-57
2022/06/09 11:06:14;;;;;;;10.25;2.40;;;18.90;99.90;;;;;;4996552;28;20549;-57
2022/06/09 11:08:40;;;;;;;11.45;1.77;;;18.80;99.90;;;;;;4995178;28;20117;-58
2022/06/09 11:11:24;;;;;;;14.45;2.80;;;19.00;99.90;;;;;;4997353;28;20052;-58
2022/06/09 11:14:15;;;;;;;15.02;2.25;;;19.50;99.90;;;;;;4992466;28;20072;-57
2022/06/09 11:16:50;;;;;;;12.25;1.88;;;19.50;99.90;;;;;;5000943;28;20038;-58
2022/06/09 11:19:30;;;;;;;18.50;2.60;;;19.50;99.90;;;;;;4992299;28;20060;-58
2022/06/09 11:21:59;;;;;;;11.77;1.60;;;19.70;99.90;;;;;;5004381;28;20117;-58
2022/06/09 11:24:50;;;;;;;17.92;2.70;;;19.80;99.90;;;;;;4987341;28;20149;-59
2022/06/09 11:27:28;;;;;;;12.55;2.42;;;19.90;99.90;;;;;;5002120;28;20038;-57
2022/06/09 11:30:31;;;;;;;15.60;1.92;;;19.60;99.90;;;;;;5009827;28;20042;-58
2022/06/09 11:33:34;;;;;;;20.63;2.20;;;19.10;99.90;;;;;;5009740;28;20106;-57
2022/06/09 11:36:13;;;;;;;14.10;2.00;;;19.50;99.90;;;;;;5008027;28;20034;-57
2022/06/09 11:38:44;;;;;;;18.80;3.22;;;18.90;99.90;;;;;;5009420;28;20044;-58
2022/06/09 11:41:43;;;;;;;12.38;1.95;;;18.80;99.90;;;;;;5007481;28;20446;-58
2022/06/09 11:44:20;;;;;;;13.27;1.77;;;18.80;99.90;;;;;;4990523;28;20042;-58
2022/06/09 11:46:46;;;;;;;15.63;2.50;;;19.10;99.90;;;;;;5009534;28;20116;-58
2022/06/09 11:49:36;;;;;;;15.13;2.80;;;19.40;99.90;;;;;;5007894;28;20113;-58
2022/06/09 11:52:06;;;;;;;16.73;3.05;;;19.70;99.90;;;;;;5007807;28;20188;-56
2022/06/09 11:54:51;;;;;;;17.63;2.80;;;19.70;99.90;;;;;;5009332;28;20133;-57
2022/06/09 11:57:16;;;;;;;13.98;2.13;;;19.50;99.90;;;;;;5007250;28;20041;-57
2022/06/09 12:00:18;;;;;;;9.95;1.55;;;18.90;99.90;;;;;;5009401;28;20405;-57
2022/06/09 12:03:04;;;;;;;13.80;2.55;;;19.20;99.90;;;;;;5009584;28;20030;-57
2022/06/09 12:05:47;;;;;;;11.52;1.67;;;19.40;99.90;;;;;;4998040;28;20037;-57
2022/06/09 12:08:21;;;;;;;9.93;1.67;;;19.90;99.90;;;;;;4982306;28;20407;-58
2022/06/09 12:11:16;;;;;;;16.08;1.80;;;20.10;99.90;;;;;;5009182;28;20061;-57
2022/06/09 12:13:54;;;;;;;18.15;1.90;;;19.90;99.90;;;;;;4994725;28;20038;-58
2022/06/09 12:16:27;;;;;;;11.80;1.80;;;20.00;99.90;;;;;;4998841;28;20037;-59
2022/06/09 12:19:01;;;;;;;12.00;2.58;;;19.90;99.90;;;;;;4986610;28;20036;-58
2022/06/09 12:21:31;;;;;;;16.08;3.25;;;19.80;99.90;;;;;;5007358;28;20080;-57
2022/06/09 12:24:01;;;;;;;10.80;1.67;;;19.90;99.90;;;;;;5002488;28;20026;-57
2022/06/09 12:26:50;;;;;;;11.10;1.98;;;19.80;99.90;;;;;;5002848;28;20029;-58
2022/06/09 12:29:43;;;;;;;11.32;1.90;;;19.90;99.90;;;;;;4981428;28;20113;-57
2022/06/09 12:32:09;;;;;;;14.60;2.08;;;20.00;99.90;;;;;;4993784;28;20084;-57
2022/06/09 12:34:52;;;;;;;11.40;1.75;;;20.10;99.90;;;;;;4997768;28;20037;-58
2022/06/09 12:37:33;;;;;;;13.77;1.77;;;20.00;99.90;;;;;;4994969;28;20022;-57
2022/06/09 12:40:22;;;;;;;16.02;2.47;;;20.40;99.90;;;;;;4993657;28;20495;-56
2022/06/09 12:43:09;;;;;;;8.63;2.30;;;21.40;99.90;;;;;;4996980;28;20038;-59
2022/06/09 12:45:38;;;;;;;7.97;1.55;;;21.30;99.90;;;;;;4991296;28;20030;-58
2022/06/09 12:48:16;;;;;;;9.57;1.52;;;21.60;99.90;;;;;;4993569;28;20513;-57
2022/06/09 12:50:49;;;;;;;9.98;1.70;;;21.90;99.90;;;;;;5000867;28;20082;-57
2022/06/09 12:53:21;;;;;;;8.82;1.85;;;22.40;99.90;;;;;;4984574;28;20108;-58
2022/06/09 12:55:57;;;;;;;10.05;2.67;;;21.70;99.90;;;;;;4999337;28;20501;-58
2022/06/09 12:58:31;;;;;;;12.32;1.13;;;21.40;99.90;;;;;;4983486;28;20522;-58
2022/06/09 13:01:00;;;;;;;12.90;2.40;;;20.90;99.90;;;;;;4992181;28;20035;-58
2022/06/09 13:03:35;;;;;;;12.73;1.75;;;21.30;99.90;;;;;;4991265;28;20509;-57
2022/06/09 13:06:27;;;;;;;6.30;1.30;;;21.30;99.90;;;;;;4994498;28;20029;-58
2022/06/09 13:09:13;;;;;;;7.53;1.95;;;21.30;99.90;;;;;;5004269;28;20080;-59
2022/06/09 13:14:37;;;;;;;14.98;2.08;;;21.00;99.90;;;;;;4997617;28;20068;-59
2022/06/09 13:17:12;;;;;;;11.60;1.70;;;20.40;99.90;;;;;;4999645;28;20536;-57
2022/06/09 13:19:38;;;;;;;13.30;2.30;;;20.00;99.90;;;;;;5003157;28;20493;-57
2022/06/09 13:22:08;;;;;;;18.83;3.33;;;20.60;99.90;;;;;;4998278;28;20129;-57
2022/06/09 13:24:37;;;;;;;10.60;1.98;;;20.40;99.90;;;;;;4990666;28;20030;-57